Time;durP1;ratioP1;P1;durP2;ratioP2;P2;SDS_P1;SDS_P2;PMS_P1;PMS_P2;Temp;Humidity;BMP_temperature;BMP_pressure;BME280_temperature;BME280_humidity;BME280_pressure;Samples;Min_cycle;Max_cycle;Signal;HPM_P1;HPM_P2
2022/07/24 00:02:10;;;;;;;5.30;4.75;;;;;;;26.45;44.10;99271.22;5146984;27;20058;-70
2022/07/24 00:04:38;;;;;;;4.40;4.00;;;;;;;26.49;44.15;99267.09;5146560;27;20055;-70
2022/07/24 00:07:05;;;;;;;7.03;5.80;;;;;;;26.26;43.99;99235.63;5146897;27;20050;-70
2022/07/24 00:09:33;;;;;;;6.15;5.30;;;;;;;26.53;44.46;99276.56;5146395;27;20055;-70
2022/07/24 00:12:01;;;;;;;9.35;8.15;;;;;;;26.55;44.25;99273.66;5146533;27;20115;-70
2022/07/24 00:14:28;;;;;;;8.48;7.63;;;;;;;26.53;44.41;99268.41;5146613;27;20360;-70
2022/07/24 00:16:55;;;;;;;6.82;5.07;;;;;;;26.43;44.31;99254.25;5146695;27;20062;-71
2022/07/24 00:19:22;;;;;;;5.30;4.80;;;;;;;26.57;44.23;99268.03;5146714;27;20058;-70
2022/07/24 00:21:49;;;;;;;5.88;4.72;;;;;;;26.53;44.46;99270.28;5146669;27;20055;-71
2022/07/24 00:24:16;;;;;;;8.00;5.10;;;;;;;26.35;44.24;99239.94;5146524;27;20175;-70
2022/07/24 00:26:45;;;;;;;6.13;5.00;;;;;;;26.50;44.34;99266.06;5146522;27;20047;-71
2022/07/24 00:29:12;;;;;;;5.95;4.80;;;;;;;26.51;44.77;99267.75;5146248;27;20055;-70
2022/07/24 00:31:39;;;;;;;4.95;4.45;;;;;;;26.40;44.43;99251.09;5146309;27;20207;-71
2022/07/24 00:34:07;;;;;;;5.93;4.43;;;;;;;26.53;44.65;99273.00;5145964;27;20055;-71
2022/07/24 00:36:34;;;;;;;4.45;3.88;;;;;;;26.48;44.44;99265.41;5146179;27;20054;-70
2022/07/24 00:39:01;;;;;;;5.20;4.45;;;;;;;25.91;44.80;99186.44;5145704;27;20055;-71
2022/07/24 00:41:29;;;;;;;5.47;4.22;;;;;;;26.48;45.03;99275.44;5146413;27;20307;-70
2022/07/24 00:44:02;;;;;;;6.70;4.68;;;;;;;26.42;45.03;99268.88;5146086;27;20047;-71
2022/07/24 00:46:30;;;;;;;8.63;5.65;;;;;;;26.44;44.95;99274.13;5146030;27;20051;-71
2022/07/24 00:48:57;;;;;;;6.45;5.85;;;;;;;26.47;44.69;99281.91;5145726;28;20081;-71
2022/07/24 00:51:25;;;;;;;6.03;5.30;;;;;;;26.21;44.77;99237.03;5146007;27;20055;-71
2022/07/24 00:53:52;;;;;;;6.70;6.00;;;;;;;26.31;44.87;99263.06;5146272;27;20058;-71
2022/07/24 00:56:20;;;;;;;7.43;5.15;;;;;;;26.43;44.81;99284.16;5145901;27;20055;-71
2022/07/24 00:58:47;;;;;;;5.95;5.32;;;;;;;26.35;44.84;99273.38;5146113;27;20104;-71
2022/07/24 01:01:17;;;;;;;6.55;4.88;;;;;;;26.39;45.20;99290.16;5146937;27;20059;-71
2022/07/24 01:03:44;;;;;;;6.35;5.35;;;;;;;26.33;45.51;99291.75;5149993;27;20264;-71
2022/07/24 01:06:12;;;;;;;5.63;4.57;;;;;;;26.35;44.95;99291.56;5150192;27;20055;-71
2022/07/24 01:08:39;;;;;;;5.25;4.75;;;;;;;26.30;45.38;99294.84;5150526;27;20046;-70
2022/07/24 01:11:06;;;;;;;7.10;4.93;;;;;;;26.15;45.19;99272.25;5149197;27;20236;-70
2022/07/24 01:13:34;;;;;;;5.75;4.28;;;;;;;26.22;45.17;99300.34;5149943;27;20055;-71
2022/07/24 01:16:01;;;;;;;6.03;4.60;;;;;;;26.19;45.53;99295.28;5150208;27;20055;-71
2022/07/24 01:18:29;;;;;;;6.80;4.35;;;;;;;26.14;45.55;99314.88;5150229;27;20307;-71
2022/07/24 01:20:58;;;;;;;5.13;4.53;;;;;;;26.14;45.79;99303.16;5149781;27;20059;-70
2022/07/24 01:23:25;;;;;;;5.93;5.32;;;;;;;26.14;45.47;99295.00;5149601;27;20047;-70
2022/07/24 01:25:52;;;;;;;5.60;5.10;;;;;;;25.80;45.90;99233.91;5149867;27;20076;-71
2022/07/24 01:28:20;;;;;;;6.07;4.78;;;;;;;26.24;45.94;99301.00;5149658;27;20303;-71
2022/07/24 01:30:47;;;;;;;5.70;4.40;;;;;;;26.14;46.28;99304.00;5149465;27;20074;-71
2022/07/24 01:33:15;;;;;;;5.78;4.65;;;;;;;26.15;46.06;99300.25;5149336;27;20047;-71
2022/07/24 01:35:43;;;;;;;5.13;4.63;;;;;;;26.19;45.59;99296.13;5149438;27;20054;-71
2022/07/24 01:38:14;;;;;;;6.93;5.25;;;;;;;26.25;45.77;99291.00;5149497;27;20055;-72
2022/07/24 01:40:43;;;;;;;5.60;4.60;;;;;;;26.10;45.79;99261.09;5148540;27;20222;-73
2022/07/24 01:43:10;;;;;;;5.50;4.60;;;;;;;26.23;46.05;99302.03;5149470;27;20047;-72
2022/07/24 01:45:38;;;;;;;6.45;4.90;;;;;;;26.15;45.97;99294.81;5149304;27;20055;-72
2022/07/24 01:48:05;;;;;;;5.90;5.22;;;;;;;25.80;45.76;99233.91;5149557;27;20318;-72
2022/07/24 01:50:33;;;;;;;5.38;4.72;;;;;;;25.82;45.81;99226.41;5149383;27;20215;-73
2022/07/24 01:53:01;;;;;;;6.93;5.20;;;;;;;26.13;46.30;99283.31;5149046;27;20051;-73
2022/07/24 01:55:30;;;;;;;7.07;5.97;;;;;;;26.17;46.22;99292.75;5149204;27;20051;-73
2022/07/24 01:57:58;;;;;;;6.28;5.30;;;;;;;26.17;46.20;99287.34;5148871;27;20092;-73
2022/07/24 02:00:25;;;;;;;5.72;5.22;;;;;;;26.03;46.39;99268.31;5149142;27;20051;-73
2022/07/24 02:02:52;;;;;;;6.93;5.63;;;;;;;26.10;46.69;99285.56;5149152;27;20112;-71
2022/07/24 02:05:19;;;;;;;5.75;5.00;;;;;;;25.88;47.06;99265.53;5148908;27;20112;-72
2022/07/24 02:07:54;;;;;;;8.07;7.25;;;;;;;26.01;46.78;99287.50;5148737;27;20100;-70
2022/07/24 02:10:21;;;;;;;9.13;7.88;;;;;;;25.99;47.24;99275.97;5149000;27;20054;-70
2022/07/24 02:12:50;;;;;;;9.07;6.68;;;;;;;25.56;47.16;99218.69;5148414;27;20055;-70
2022/07/24 02:15:17;;;;;;;7.72;6.80;;;;;;;26.00;46.97;99269.53;5149019;27;20055;-70
2022/07/24 02:17:47;;;;;;;6.25;5.35;;;;;;;25.99;47.13;99277.84;5148994;27;20111;-70
2022/07/24 02:20:14;;;;;;;8.00;6.13;;;;;;;25.96;47.09;99275.47;5148869;27;20249;-71
2022/07/24 02:22:41;;;;;;;6.97;5.78;;;;;;;25.91;47.37;99276.03;5148679;27;20108;-71
2022/07/24 02:25:10;;;;;;;6.32;5.72;;;;;;;25.96;47.51;99276.31;5148749;27;20073;-71
2022/07/24 02:27:37;;;;;;;8.15;6.05;;;;;;;25.90;47.60;99277.06;5148773;27;20111;-71
2022/07/24 02:30:09;;;;;;;6.25;5.65;;;;;;;25.95;47.57;99281.94;5148780;27;20055;-71
2022/07/24 02:32:36;;;;;;;6.30;5.65;;;;;;;25.91;47.38;99286.88;5148741;27;20055;-71
2022/07/24 02:35:04;;;;;;;6.60;5.90;;;;;;;25.93;47.63;99284.84;5148678;27;20314;-70
2022/07/24 02:37:32;;;;;;;5.97;5.30;;;;;;;25.85;47.83;99280.31;5148397;27;20059;-72
2022/07/24 02:39:59;;;;;;;6.75;6.05;;;;;;;25.81;47.88;99276.28;5148189;27;20131;-70
2022/07/24 02:42:26;;;;;;;7.30;6.60;;;;;;;25.74;48.16;99282.66;5148513;27;20101;-71
2022/07/24 02:44:53;;;;;;;6.63;5.90;;;;;;;25.75;48.07;99287.03;5147966;27;20051;-71
2022/07/24 02:47:22;;;;;;;7.38;6.68;;;;;;;25.82;48.04;99286.13;5148098;27;20104;-70
2022/07/24 02:49:49;;;;;;;6.65;5.93;;;;;;;25.66;48.35;99286.28;5147910;27;20103;-71
2022/07/24 02:52:16;;;;;;;7.90;6.28;;;;;;;25.57;48.69;99288.22;5147860;27;20055;-71
2022/07/24 02:54:43;;;;;;;7.13;6.40;;;;;;;25.57;48.48;99299.06;5148148;27;20252;-71
2022/07/24 02:57:11;;;;;;;6.82;6.15;;;;;;;25.49;48.54;99273.88;5148167;27;20187;-70
2022/07/24 02:59:38;;;;;;;8.10;6.32;;;;;;;25.43;48.52;99288.16;5147720;27;20055;-71
2022/07/24 03:02:05;;;;;;;7.10;6.20;;;;;;;25.45;48.79;99308.66;5148223;27;20055;-71
2022/07/24 03:04:34;;;;;;;8.30;6.68;;;;;;;25.38;49.19;99312.28;5147888;27;20352;-71
2022/07/24 03:07:01;;;;;;;8.38;6.82;;;;;;;25.33;49.48;99311.97;5147804;27;20360;-72
2022/07/24 03:09:29;;;;;;;7.32;6.50;;;;;;;25.32;49.00;99318.38;5147870;27;20076;-72
2022/07/24 03:11:56;;;;;;;9.30;7.63;;;;;;;25.41;48.95;99328.19;5147493;27;20055;-72
2022/07/24 03:14:23;;;;;;;7.43;6.72;;;;;;;25.25;49.02;99318.25;5147580;27;20051;-73
2022/07/24 03:16:50;;;;;;;9.23;6.57;;;;;;;25.31;49.04;99330.25;5147679;27;20055;-72
2022/07/24 03:19:17;;;;;;;7.10;6.38;;;;;;;25.28;49.27;99342.31;5147807;27;20315;-72
2022/07/24 03:21:46;;;;;;;7.32;6.53;;;;;;;25.19;49.84;99341.53;5147729;27;20055;-72
2022/07/24 03:24:13;;;;;;;8.68;6.53;;;;;;;25.07;49.44;99344.81;5146900;27;20064;-73
2022/07/24 03:26:40;;;;;;;6.70;6.00;;;;;;;25.11;49.67;99344.28;5147565;27;20093;-72
2022/07/24 03:29:08;;;;;;;9.07;8.18;;;;;;;25.02;49.96;99352.63;5147607;27;20059;-72
2022/07/24 03:31:35;;;;;;;10.20;8.13;;;;;;;25.00;49.64;99330.25;5147183;27;20103;-72
2022/07/24 03:34:02;;;;;;;9.70;8.70;;;;;;;25.12;49.57;99354.09;5147478;27;20066;-72
2022/07/24 03:36:29;;;;;;;11.95;10.70;;;;;;;25.09;49.64;99362.59;5146918;27;20047;-73
2022/07/24 03:38:58;;;;;;;12.68;11.48;;;;;;;25.10;49.69;99363.44;5147188;27;20108;-73
2022/07/24 03:41:25;;;;;;;16.13;14.52;;;;;;;25.11;50.04;99365.97;5106274;28;20312;-73
2022/07/24 03:43:52;;;;;;;15.32;13.73;;;;;;;25.02;49.80;99364.31;5106008;28;20085;-73
2022/07/24 03:46:20;;;;;;;12.40;9.30;;;;;;;25.06;49.97;99367.53;5105762;28;20098;-72
2022/07/24 03:48:47;;;;;;;9.77;8.90;;;;;;;25.03;49.66;99370.59;5106170;28;20223;-73
2022/07/24 03:51:14;;;;;;;7.43;6.68;;;;;;;25.03;49.96;99367.88;5106182;28;20246;-73
2022/07/24 03:53:41;;;;;;;10.32;7.50;;;;;;;25.02;49.81;99368.91;5105997;28;20056;-73
2022/07/24 03:56:11;;;;;;;7.97;7.00;;;;;;;24.88;50.06;99341.47;5106005;28;20312;-72
2022/07/24 03:58:38;;;;;;;8.73;7.82;;;;;;;24.99;49.91;99377.34;5105978;28;20308;-72
2022/07/24 04:01:05;;;;;;;7.90;7.10;;;;;;;24.90;50.17;99371.97;5105968;28;20319;-72
2022/07/24 04:03:32;;;;;;;8.35;6.82;;;;;;;24.77;50.76;99373.53;5105910;28;20323;-72
2022/07/24 04:06:01;;;;;;;9.10;7.00;;;;;;;24.83;50.25;99376.41;5105803;28;20113;-72
2022/07/24 04:08:28;;;;;;;12.70;7.60;;;;;;;24.73;50.34;99367.63;5105912;28;20226;-72
2022/07/24 04:10:57;;;;;;;9.02;7.72;;;;;;;24.69;50.82;99387.13;5105816;28;20262;-72
2022/07/24 04:13:27;;;;;;;8.80;7.85;;;;;;;24.70;50.36;99373.41;5105659;28;20113;-72
2022/07/24 04:15:54;;;;;;;12.25;7.65;;;;;;;24.66;50.92;99403.72;5105382;28;20052;-72
2022/07/24 04:18:22;;;;;;;9.65;7.10;;;;;;;24.67;51.17;99400.00;5105652;28;20316;-73
2022/07/24 04:20:49;;;;;;;7.88;7.10;;;;;;;24.63;50.72;99403.03;5105643;28;20066;-72
2022/07/24 04:23:16;;;;;;;7.80;7.07;;;;;;;24.66;50.70;99406.44;5105627;28;20112;-72
2022/07/24 04:25:44;;;;;;;7.43;6.72;;;;;;;24.76;50.60;99401.66;5105568;28;20051;-72
2022/07/24 04:28:12;;;;;;;7.93;6.43;;;;;;;24.77;50.35;99406.06;5105611;28;20056;-72
2022/07/24 04:30:40;;;;;;;7.72;6.93;;;;;;;24.67;50.92;99403.56;5105459;28;20097;-71
2022/07/24 04:33:07;;;;;;;7.30;6.60;;;;;;;24.68;50.45;99415.25;5105506;28;20172;-71
2022/07/24 04:35:35;;;;;;;7.43;6.70;;;;;;;24.63;50.39;99399.47;5105254;28;20056;-72
2022/07/24 04:38:02;;;;;;;7.95;7.15;;;;;;;24.64;50.91;99423.69;5105547;28;20358;-72
2022/07/24 04:40:29;;;;;;;10.65;6.53;;;;;;;24.75;50.71;99419.78;5130547;28;20264;-72
2022/07/24 04:42:56;;;;;;;8.05;7.00;;;;;;;24.81;50.54;99429.09;5145975;27;20055;-71
2022/07/24 04:45:24;;;;;;;7.75;6.07;;;;;;;24.75;50.77;99433.34;5146182;27;20059;-74
2022/07/24 04:47:52;;;;;;;6.63;5.93;;;;;;;24.79;50.63;99440.09;5145915;28;20116;-74
2022/07/24 04:50:19;;;;;;;7.18;6.55;;;;;;;24.78;50.52;99451.97;5145853;27;20055;-74
2022/07/24 04:52:46;;;;;;;8.48;6.75;;;;;;;24.65;50.74;99446.25;5145898;27;20055;-74
2022/07/24 04:55:14;;;;;;;7.75;6.95;;;;;;;24.73;50.33;99448.94;5146008;27;20055;-74
2022/07/24 04:57:41;;;;;;;8.13;6.38;;;;;;;24.70;50.42;99432.16;5146311;27;20055;-74
2022/07/24 05:00:11;;;;;;;6.80;6.20;;;;;;;24.82;50.46;99460.59;5146188;27;20062;-74
2022/07/24 05:02:39;;;;;;;6.97;6.32;;;;;;;24.80;50.36;99462.63;5146265;27;20217;-74
2022/07/24 05:05:08;;;;;;;7.70;6.93;;;;;;;24.81;50.18;99450.78;5145878;28;20055;-74
2022/07/24 05:07:36;;;;;;;7.03;6.32;;;;;;;24.84;50.16;99451.28;5145901;27;20051;-73
2022/07/24 05:10:04;;;;;;;7.50;6.30;;;;;;;24.79;50.23;99450.09;5145681;28;20055;-73
2022/07/24 05:12:31;;;;;;;7.78;6.43;;;;;;;24.73;50.10;99454.34;5145950;27;20372;-74
2022/07/24 05:14:58;;;;;;;7.45;6.70;;;;;;;24.72;50.57;99451.81;5145976;28;20172;-73
2022/07/24 05:17:25;;;;;;;7.07;6.15;;;;;;;24.73;50.06;99462.47;5146088;27;20112;-73
2022/07/24 05:19:52;;;;;;;6.85;6.22;;;;;;;24.77;49.77;99471.13;5145906;28;20050;-74
2022/07/24 05:22:21;;;;;;;7.53;6.82;;;;;;;24.77;49.83;99462.97;5146010;27;20100;-73
2022/07/24 05:24:48;;;;;;;6.75;6.05;;;;;;;24.79;49.44;99455.53;5145994;27;20108;-74
2022/07/24 05:27:15;;;;;;;11.07;6.90;;;;;;;24.76;49.54;99459.44;5145642;28;20303;-74
2022/07/24 05:29:42;;;;;;;7.15;6.45;;;;;;;24.79;49.68;99467.22;5145805;27;20055;-74
2022/07/24 05:32:10;;;;;;;6.63;6.03;;;;;;;24.70;48.73;99461.97;5145688;27;20110;-74
2022/07/24 05:34:37;;;;;;;7.13;6.47;;;;;;;24.70;48.95;99465.53;5145352;27;20100;-74
2022/07/24 05:37:04;;;;;;;8.18;7.15;;;;;;;24.73;48.92;99465.19;5145709;28;20051;-74
2022/07/24 05:39:33;;;;;;;7.20;6.50;;;;;;;24.80;48.61;99471.63;5145504;27;20058;-74
2022/07/24 05:42:00;;;;;;;6.30;5.70;;;;;;;24.79;48.36;99463.66;5145491;27;20084;-74
2022/07/24 05:44:27;;;;;;;7.75;6.30;;;;;;;24.70;47.62;99470.09;5145626;28;20059;-74
2022/07/24 05:46:55;;;;;;;8.10;5.97;;;;;;;24.81;48.19;99464.31;5145329;27;20058;-74
2022/07/24 05:49:22;;;;;;;7.22;6.53;;;;;;;24.86;48.10;99464.66;5149437;27;20055;-73
2022/07/24 05:51:49;;;;;;;9.93;6.00;;;;;;;24.88;47.93;99465.31;5149449;27;20111;-74
2022/07/24 05:54:16;;;;;;;6.65;5.95;;;;;;;24.87;48.18;99463.63;5149180;27;20055;-74
2022/07/24 05:56:45;;;;;;;7.47;5.80;;;;;;;24.93;47.89;99465.66;5149211;27;20055;-74
2022/07/24 05:59:12;;;;;;;5.90;5.30;;;;;;;24.98;47.96;99462.41;5148719;27;20055;-74
2022/07/24 06:01:39;;;;;;;5.88;5.28;;;;;;;25.00;47.94;99471.22;5149030;27;20062;-73
2022/07/24 06:04:06;;;;;;;7.18;6.30;;;;;;;24.66;47.80;99418.13;5148993;27;20055;-74
2022/07/24 06:06:33;;;;;;;6.25;5.65;;;;;;;25.03;47.73;99471.75;5148752;27;20085;-74
2022/07/24 06:09:00;;;;;;;7.10;5.90;;;;;;;24.98;47.42;99460.56;5148597;27;20055;-74
2022/07/24 06:11:28;;;;;;;8.43;6.50;;;;;;;24.96;47.58;99454.47;5148846;27;20055;-74
2022/07/24 06:13:56;;;;;;;6.68;6.07;;;;;;;25.05;47.60;99461.59;5149080;27;20221;-74
2022/07/24 06:16:23;;;;;;;12.15;6.68;;;;;;;25.04;47.44;99461.75;5148531;27;20051;-73
2022/07/24 06:18:51;;;;;;;6.75;6.05;;;;;;;25.03;47.36;99470.91;5148904;27;20233;-74
2022/07/24 06:21:18;;;;;;;7.10;5.57;;;;;;;25.08;47.04;99468.53;5148288;27;20054;-74
2022/07/24 06:23:45;;;;;;;6.45;5.65;;;;;;;24.97;46.60;99461.56;5148333;27;20123;-74
2022/07/24 06:26:12;;;;;;;6.53;5.20;;;;;;;24.95;46.82;99450.06;5148567;27;20108;-74
2022/07/24 06:28:39;;;;;;;6.93;6.22;;;;;;;25.07;46.64;99466.81;5148308;27;20058;-74
2022/07/24 06:31:08;;;;;;;6.55;5.90;;;;;;;25.05;46.24;99477.00;5148766;27;20096;-73
2022/07/24 06:33:35;;;;;;;5.78;5.25;;;;;;;25.08;45.78;99469.38;5148415;27;20055;-74
2022/07/24 06:36:02;;;;;;;6.78;5.65;;;;;;;25.07;45.33;99475.81;5148449;27;20240;-74
2022/07/24 06:38:29;;;;;;;6.45;5.20;;;;;;;25.13;45.43;99471.56;5148472;27;20344;-73
2022/07/24 06:40:57;;;;;;;6.28;5.55;;;;;;;25.18;45.39;99475.44;5147890;27;20318;-74
2022/07/24 06:43:24;;;;;;;6.05;5.22;;;;;;;25.21;45.22;99477.78;5148338;27;20059;-74
2022/07/24 06:45:51;;;;;;;6.93;5.93;;;;;;;25.30;45.33;99480.47;5147152;27;20100;-73
2022/07/24 06:48:20;;;;;;;5.55;4.65;;;;;;;25.31;44.56;99474.03;5147898;27;20100;-73
2022/07/24 06:50:47;;;;;;;5.88;5.10;;;;;;;25.33;44.82;99478.28;5148497;27;20107;-73
2022/07/24 06:53:14;;;;;;;6.03;5.43;;;;;;;25.40;44.70;99484.69;5148251;27;20100;-74
2022/07/24 06:55:41;;;;;;;5.80;5.22;;;;;;;25.31;44.21;99464.03;5148113;27;20363;-74
2022/07/24 06:58:08;;;;;;;6.40;5.40;;;;;;;25.49;44.40;99477.38;5147745;27;20054;-73
2022/07/24 07:00:36;;;;;;;5.90;5.25;;;;;;;25.47;44.13;99476.69;5147954;27;20055;-73
2022/07/24 07:03:03;;;;;;;5.38;4.85;;;;;;;25.59;44.04;99484.25;5148246;27;20039;-74
2022/07/24 07:05:31;;;;;;;5.30;4.78;;;;;;;25.70;43.50;99485.72;5147987;27;20063;-74
2022/07/24 07:07:58;;;;;;;7.15;5.22;;;;;;;25.71;43.60;99486.56;5148209;27;20073;-74
2022/07/24 07:10:26;;;;;;;5.15;4.60;;;;;;;25.73;43.24;99482.66;5147762;27;20096;-74
2022/07/24 07:12:53;;;;;;;6.53;4.90;;;;;;;25.67;43.28;99482.53;5147726;27;20055;-73
2022/07/24 07:15:20;;;;;;;4.95;4.45;;;;;;;25.63;43.25;99475.75;5147676;27;20199;-74
2022/07/24 07:17:47;;;;;;;5.82;5.22;;;;;;;25.69;43.53;99475.91;5147436;27;20170;-74
2022/07/24 07:20:15;;;;;;;5.88;5.18;;;;;;;25.66;43.43;99457.25;5147588;27;20055;-74
2022/07/24 07:22:44;;;;;;;6.38;4.97;;;;;;;25.85;42.76;99472.22;5146426;27;20055;-73
2022/07/24 07:25:12;;;;;;;7.47;5.15;;;;;;;25.97;43.19;99476.25;5147343;27;20128;-74
2022/07/24 07:27:40;;;;;;;5.00;4.50;;;;;;;26.02;42.64;99451.28;5147577;27;20059;-74
2022/07/24 07:30:09;;;;;;;5.07;4.55;;;;;;;26.38;42.71;99474.06;5147325;27;20100;-74
2022/07/24 07:32:36;;;;;;;6.22;4.47;;;;;;;26.48;42.01;99462.94;5147787;27;20062;-74
2022/07/24 07:35:04;;;;;;;5.10;4.43;;;;;;;26.68;41.38;99460.56;5147034;27;20055;-74
2022/07/24 07:37:31;;;;;;;5.47;4.78;;;;;;;27.02;40.64;99462.75;5147323;27;20241;-73
2022/07/24 07:39:59;;;;;;;5.63;4.47;;;;;;;27.28;39.63;99460.41;5146758;27;20081;-74
2022/07/24 07:42:27;;;;;;;4.55;3.95;;;;;;;27.47;39.60;99461.72;5147515;27;20063;-73
2022/07/24 07:44:54;;;;;;;7.85;4.68;;;;;;;27.19;38.61;99383.47;5147275;27;20089;-74
2022/07/24 07:47:21;;;;;;;5.40;4.55;;;;;;;27.87;37.98;99457.63;5147001;27;20055;-74
2022/07/24 07:49:48;;;;;;;5.13;4.60;;;;;;;27.77;37.29;99438.84;5147290;27;20192;-74
2022/07/24 07:52:16;;;;;;;4.50;4.07;;;;;;;28.08;36.93;99454.06;5147309;27;20036;-74
2022/07/24 07:54:45;;;;;;;4.60;4.00;;;;;;;28.27;36.61;99461.59;5147110;27;20127;-74
2022/07/24 07:57:13;;;;;;;5.82;4.20;;;;;;;28.43;35.67;99458.59;5147009;27;20058;-74
2022/07/24 07:59:40;;;;;;;6.90;4.15;;;;;;;28.34;35.75;99409.84;5147014;27;20063;-74
2022/07/24 08:02:08;;;;;;;5.68;3.88;;;;;;;28.70;35.86;99454.19;5147129;27;20051;-74
2022/07/24 08:04:35;;;;;;;5.65;4.55;;;;;;;28.86;34.72;99449.47;5146751;27;20356;-74
2022/07/24 08:07:03;;;;;;;6.68;4.30;;;;;;;28.89;35.31;99454.53;5146774;27;20084;-74
2022/07/24 08:09:30;;;;;;;7.97;4.90;;;;;;;28.98;34.74;99456.06;5146892;27;20299;-74
2022/07/24 08:11:57;;;;;;;6.53;4.03;;;;;;;29.00;34.73;99445.78;5146371;27;20163;-73
2022/07/24 08:14:26;;;;;;;5.43;4.05;;;;;;;29.22;33.83;99455.59;5146817;27;20058;-74
2022/07/24 08:16:53;;;;;;;6.38;3.83;;;;;;;29.27;33.59;99455.84;5146878;27;20043;-74
2022/07/24 08:19:20;;;;;;;4.68;3.78;;;;;;;29.19;34.13;99441.50;5145906;27;20050;-74
2022/07/24 08:21:48;;;;;;;4.82;3.70;;;;;;;29.46;33.98;99459.69;5146894;27;20303;-74
2022/07/24 08:24:20;;;;;;;5.47;4.38;;;;;;;29.56;33.46;99451.13;5146794;27;20291;-73
2022/07/24 08:26:47;;;;;;;6.40;3.85;;;;;;;29.75;32.77;99460.47;5146813;27;20055;-74
2022/07/24 08:29:14;;;;;;;4.75;3.88;;;;;;;29.56;31.96;99448.38;5146761;27;20187;-74
2022/07/24 08:31:43;;;;;;;5.35;3.40;;;;;;;29.82;31.57;99470.34;5146743;27;20055;-74
2022/07/24 08:34:11;;;;;;;4.78;4.10;;;;;;;29.83;32.27;99469.31;5147042;27;20111;-74
2022/07/24 08:36:38;;;;;;;7.43;3.60;;;;;;;29.86;31.72;99447.03;5146652;27;20099;-74
2022/07/24 08:39:06;;;;;;;4.65;4.15;;;;;;;29.96;32.27;99463.03;5145934;27;20055;-74
2022/07/24 08:41:35;;;;;;;4.43;3.92;;;;;;;30.11;31.63;99460.13;5146746;27;20055;-74
2022/07/24 08:44:03;;;;;;;5.13;3.65;;;;;;;30.32;31.48;99460.00;5146540;28;20047;-74
2022/07/24 08:46:32;;;;;;;4.57;3.28;;;;;;;30.36;30.39;99466.72;5146264;27;20375;-74
2022/07/24 08:49:00;;;;;;;4.13;3.70;;;;;;;30.51;30.01;99461.88;5146631;27;20059;-74
2022/07/24 08:51:33;;;;;;;4.28;3.53;;;;;;;30.52;28.41;99460.84;5146297;28;20084;-74
2022/07/24 08:54:02;;;;;;;4.88;4.07;;;;;;;30.55;29.66;99454.09;5146481;27;20241;-74
2022/07/24 08:56:29;;;;;;;3.95;2.95;;;;;;;30.58;30.15;99456.41;5145385;28;20264;-74
2022/07/24 08:58:57;;;;;;;5.80;3.45;;;;;;;30.75;29.78;99452.22;5146465;27;20058;-74
2022/07/24 09:01:24;;;;;;;5.18;3.70;;;;;;;30.50;29.26;99408.25;5146433;27;20241;-74
2022/07/24 09:03:51;;;;;;;5.35;3.75;;;;;;;30.93;28.22;99457.03;5147286;27;20054;-74
2022/07/24 09:06:19;;;;;;;4.55;3.08;;;;;;;30.89;27.44;99447.56;5146497;27;20100;-74
2022/07/24 09:08:59;;;;;;;4.15;3.22;;;;;;;30.92;27.88;99450.72;5146145;27;20100;-74
2022/07/24 09:11:28;;;;;;;4.40;3.42;;;;;;;31.03;29.04;99451.94;5146000;27;20055;-73
2022/07/24 09:16:45;;;;;;;4.00;3.03;;;;;;;31.25;28.07;99458.03;5146234;28;20229;-74
2022/07/24 09:19:13;;;;;;;4.80;3.47;;;;;;;31.28;27.74;99455.69;5146274;27;20080;-74
2022/07/24 09:21:43;;;;;;;4.80;3.45;;;;;;;30.56;27.11;99332.72;5146028;27;20046;-74
2022/07/24 09:24:15;;;;;;;5.05;3.38;;;;;;;31.35;26.37;99446.63;5148908;27;20264;-74
2022/07/24 09:26:47;;;;;;;3.75;3.15;;;;;;;31.34;27.31;99443.03;5149734;27;20063;-74
2022/07/24 09:29:15;;;;;;;3.72;3.25;;;;;;;31.47;27.55;99455.84;5150040;27;20100;-73
2022/07/24 09:31:57;;;;;;;4.47;2.95;;;;;;;31.49;25.79;99457.28;5150168;27;20311;-74
2022/07/24 09:34:24;;;;;;;7.60;3.10;;;;;;;31.43;27.31;99460.91;5150066;27;20233;-74
2022/07/24 09:37:06;;;;;;;4.68;3.45;;;;;;;31.56;27.04;99460.84;5149748;27;20055;-74
2022/07/24 09:39:35;;;;;;;4.05;3.20;;;;;;;31.58;27.59;99447.78;5149166;27;20054;-74
2022/07/24 09:42:03;;;;;;;3.88;3.13;;;;;;;31.44;27.70;99448.06;5149664;27;20057;-74
2022/07/24 09:44:31;;;;;;;4.25;3.35;;;;;;;31.32;27.19;99447.03;5149749;27;20327;-74
2022/07/24 09:47:00;;;;;;;4.40;3.47;;;;;;;31.21;28.30;99454.84;5149792;27;20051;-74
2022/07/24 09:49:28;;;;;;;4.68;2.97;;;;;;;31.55;27.61;99444.63;5149717;27;20095;-73
2022/07/24 09:52:34;;;;;;;5.80;5.13;;;;;;;31.33;26.27;99391.22;5149623;27;20077;-74
2022/07/24 09:55:02;;;;;;;5.45;3.90;;;;;;;31.67;26.93;99442.03;5149282;27;20073;-74
2022/07/24 09:57:31;;;;;;;4.68;3.22;;;;;;;31.25;27.15;99346.63;5149484;27;20096;-74
2022/07/24 10:00:00;;;;;;;7.13;3.20;;;;;;;31.71;26.71;99396.72;5149270;27;20356;-74
2022/07/24 10:02:29;;;;;;;4.45;3.05;;;;;;;31.60;26.28;99388.13;5149845;27;20344;-74
2022/07/24 10:04:58;;;;;;;5.05;3.67;;;;;;;31.75;26.60;99425.34;5149237;27;20234;-74
2022/07/24 10:07:28;;;;;;;4.57;2.92;;;;;;;31.86;25.93;99427.41;5149364;27;20058;-74
2022/07/24 10:09:57;;;;;;;7.50;3.25;;;;;;;31.86;26.08;99414.56;5149360;27;20039;-74
2022/07/24 10:12:27;;;;;;;3.72;3.13;;;;;;;31.96;26.77;99435.16;5148327;27;20043;-74
2022/07/24 10:14:56;;;;;;;4.03;3.03;;;;;;;31.99;26.33;99427.31;5148810;27;20055;-74
2022/07/24 10:17:34;;;;;;;3.92;3.05;;;;;;;31.66;25.45;99393.78;5148781;27;20103;-74
2022/07/24 10:20:05;;;;;;;4.20;3.00;;;;;;;31.87;25.79;99424.47;5149051;27;20059;-74
2022/07/24 10:22:51;;;;;;;3.80;3.03;;;;;;;31.86;25.48;99421.94;5148955;27;20062;-74
2022/07/24 10:25:26;;;;;;;4.55;3.45;;;;;;;31.91;26.42;99417.47;5148990;27;20055;-74
2022/07/24 10:27:59;;;;;;;4.82;3.40;;;;;;;32.02;26.39;99415.91;5148677;27;20054;-74
2022/07/24 10:30:26;;;;;;;;;;;;;;;31.93;25.69;99411.78;5149404;27;20054;-74
2022/07/24 10:32:54;;;;;;;4.25;3.13;;;;;;;31.91;26.67;99412.00;5148473;27;19960;-74
2022/07/24 10:35:25;;;;;;;6.00;2.83;;;;;;;31.86;26.43;99383.56;5148580;27;20051;-74
2022/07/24 10:38:00;;;;;;;4.03;3.25;;;;;;;32.03;25.79;99414.84;5148823;27;20184;-74
2022/07/24 10:40:37;;;;;;;4.47;3.35;;;;;;;32.03;26.15;99423.09;5148223;27;20257;-74
2022/07/24 10:43:12;;;;;;;4.43;4.03;;;;;;;32.18;25.66;99412.63;5148557;27;20043;-74
2022/07/24 10:45:41;;;;;;;4.97;3.42;;;;;;;32.18;26.52;99409.88;5148621;27;20055;-74
2022/07/24 10:48:32;;;;;;;3.90;3.33;;;;;;;32.07;25.39;99399.66;5148420;27;20055;-74
2022/07/24 10:51:08;;;;;;;4.57;2.97;;;;;;;32.17;25.10;99397.25;5148320;27;20063;-74
2022/07/24 10:53:59;;;;;;;5.30;3.88;;;;;;;32.23;25.73;99395.50;5147996;27;20107;-74
2022/07/24 10:56:41;;;;;;;18.23;3.65;;;;;;;32.39;25.98;99407.84;5148099;27;20074;-74
2022/07/24 10:59:10;;;;;;;4.63;3.85;;;;;;;32.39;26.49;99397.72;5148606;27;20180;-74
2022/07/24 11:01:42;;;;;;;4.85;3.15;;;;;;;32.17;26.00;99380.78;5148255;27;20054;-75
2022/07/24 11:04:29;;;;;;;3.43;2.80;;;;;;;32.29;25.62;99402.00;5148270;27;20143;-75
2022/07/24 11:07:01;;;;;;;5.35;3.55;;;;;;;32.19;25.82;99380.56;5148435;27;20111;-75
2022/07/24 11:09:29;;;;;;;4.10;3.35;;;;;;;32.32;25.93;99396.09;5148153;27;20050;-74
2022/07/24 11:12:07;;;;;;;4.57;3.72;;;;;;;32.27;25.27;99407.72;5148078;27;20372;-74
2022/07/24 11:14:51;;;;;;;4.78;3.90;;;;;;;31.94;25.24;99369.59;5148212;27;20047;-75
2022/07/24 11:17:39;;;;;;;7.03;3.20;;;;;;;31.72;24.92;99352.66;5147898;27;20054;-75
2022/07/24 11:20:08;;;;;;;4.90;3.42;;;;;;;31.40;25.76;99321.69;5129588;27;20039;-74
2022/07/24 11:22:41;;;;;;;3.50;2.90;;;;;;;31.74;25.77;99334.09;5147451;27;20054;-74
2022/07/24 11:25:17;;;;;;;3.70;3.10;;;;;;;32.24;25.34;99391.72;5148439;27;20080;-74
2022/07/24 11:27:57;;;;;;;3.80;3.03;;;;;;;32.32;25.10;99383.22;5147707;27;20115;-74
2022/07/24 11:30:25;;;;;;;4.22;3.65;;;;;;;32.24;25.62;99381.56;5147805;27;20055;-75
2022/07/24 11:32:52;;;;;;;3.65;3.08;;;;;;;32.23;25.86;99374.41;5147464;27;20055;-75
2022/07/24 11:35:31;;;;;;;4.93;3.40;;;;;;;32.28;25.01;99372.91;5147380;27;20104;-75
2022/07/24 11:38:00;;;;;;;4.15;3.40;;;;;;;32.27;25.68;99358.34;5147463;27;20059;-74
2022/07/24 11:40:28;;;;;;;4.43;2.97;;;;;;;32.38;25.66;99360.38;5147255;27;20364;-74
2022/07/24 11:42:57;;;;;;;3.97;3.15;;;;;;;32.20;25.78;99330.16;5147593;27;20047;-74
2022/07/24 11:45:24;;;;;;;4.50;3.40;;;;;;;32.40;24.99;99358.25;5146715;27;20054;-74